createdAt,value
2018-05-10T00:00:37.079Z,74.88
2018-05-10T00:03:41.182Z,74.68
2018-05-10T00:06:44.507Z,74.61
2018-05-10T00:09:47.828Z,74.34
2018-05-10T00:12:51.136Z,74.31
2018-05-10T00:15:54.501Z,74.10
2018-05-10T00:18:57.852Z,74.20
2018-05-10T00:22:01.338Z,74.30
2018-05-10T00:25:04.693Z,74.17
2018-05-10T00:28:08.228Z,74.19
2018-05-10T00:31:12.528Z,74.17
2018-05-10T00:34:15.845Z,74.21
2018-05-10T00:37:19.176Z,74.19
2018-05-10T00:40:23.249Z,74.08
2018-05-10T00:43:27.245Z,74.16
2018-05-10T00:46:30.557Z,74.35
2018-05-10T00:49:33.884Z,74.32
2018-05-10T00:52:37.217Z,74.64
2018-05-10T00:55:40.545Z,74.67
2018-05-10T00:58:43.866Z,74.47
2018-05-10T01:01:47.173Z,74.67
2018-05-10T01:04:50.552Z,75.04
2018-05-10T01:07:53.865Z,75.24
2018-05-10T01:10:57.174Z,75.17
2018-05-10T01:14:01.267Z,75.27
2018-05-10T01:17:04.574Z,75.42
2018-05-10T01:20:07.920Z,75.56
2018-05-10T01:23:11.257Z,75.53
2018-05-10T01:26:14.570Z,75.48
2018-05-10T01:29:18.662Z,75.53
2018-05-10T01:32:21.990Z,75.57
2018-05-10T01:35:43.905Z,75.92
2018-05-10T01:38:47.224Z,75.92
2018-05-10T01:41:51.323Z,75.92
2018-05-10T01:44:54.638Z,75.98
2018-05-10T01:47:58.729Z,76.07
2018-05-10T01:51:02.037Z,76.43
2018-05-10T01:54:06.124Z,76.47
2018-05-10T01:57:09.440Z,76.49
2018-05-10T02:00:12.766Z,76.43
2018-05-10T02:03:16.088Z,76.30
2018-05-10T02:06:19.401Z,76.35
2018-05-10T02:09:22.733Z,76.31
2018-05-10T02:12:26.820Z,76.43
2018-05-10T02:15:30.148Z,76.34
2018-05-10T02:18:34.232Z,76.52
2018-05-10T02:21:37.565Z,76.72
2018-05-10T02:24:41.641Z,76.70
2018-05-10T02:27:44.965Z,76.43
2018-05-10T02:30:49.047Z,76.61
2018-05-10T02:33:52.372Z,76.62
2018-05-10T02:36:55.701Z,76.53
2018-05-10T02:39:59.026Z,76.76
2018-05-10T02:43:02.357Z,76.92
2018-05-10T02:46:05.684Z,77.14
2018-05-10T02:49:08.993Z,77.33
2018-05-10T02:52:12.309Z,77.17
2018-05-10T02:55:15.618Z,77.52
2018-05-10T02:58:18.938Z,77.66
2018-05-10T03:01:22.254Z,77.60
2018-05-10T03:04:26.350Z,77.74
2018-05-10T03:07:29.681Z,77.64
2018-05-10T03:10:32.986Z,77.99
2018-05-10T03:13:36.313Z,77.96
2018-05-10T03:16:39.645Z,78.09
2018-05-10T03:19:42.972Z,78.23
2018-05-10T03:22:46.278Z,78.43
2018-05-10T03:25:49.614Z,78.65
2018-05-10T03:28:52.920Z,78.97
2018-05-10T03:31:56.246Z,79.27
2018-05-10T03:35:00.323Z,79.17
2018-05-10T03:38:03.661Z,79.28
2018-05-10T03:41:07.750Z,79.28
2018-05-10T03:44:11.076Z,79.27
2018-05-10T03:47:14.419Z,79.21
2018-05-10T03:50:17.725Z,79.49
2018-05-10T03:53:21.075Z,79.48
2018-05-10T03:56:24.402Z,79.31
2018-05-10T03:59:27.729Z,79.28
2018-05-10T04:06:48.953Z,79.48
2018-05-10T04:10:09.865Z,79.60
2018-05-10T04:13:13.232Z,80.10
2018-05-10T04:16:16.538Z,80.22
2018-05-10T04:19:19.872Z,80.07
2018-05-10T04:22:23.188Z,80.27
2018-05-10T04:25:27.324Z,80.06
2018-05-10T04:28:30.877Z,80.28
2018-05-10T04:31:35.111Z,80.29
2018-05-10T04:34:38.457Z,80.32
2018-05-10T04:37:42.613Z,79.99
2018-05-10T04:40:45.945Z,79.96
2018-05-10T04:43:49.484Z,80.05
2018-05-10T04:46:52.852Z,80.25
2018-05-10T04:49:56.211Z,80.38
2018-05-10T04:52:59.520Z,80.52
2018-05-10T04:56:03.634Z,80.81
2018-05-10T04:59:07.730Z,80.62
2018-05-10T05:02:11.062Z,80.70
2018-05-10T05:05:14.393Z,80.75
2018-05-10T05:08:17.726Z,80.53
2018-05-10T05:11:21.046Z,80.67
2018-05-10T05:14:25.214Z,80.70
2018-05-10T05:17:28.614Z,80.67
2018-05-10T05:20:32.031Z,80.09
2018-05-10T05:23:35.680Z,79.99
2018-05-10T05:26:39.081Z,79.68
2018-05-10T05:29:42.555Z,79.77
2018-05-10T05:32:46.700Z,79.85
2018-05-10T05:35:49.974Z,79.86
2018-05-10T05:38:54.009Z,79.67
2018-05-10T05:41:57.313Z,79.41
2018-05-10T05:45:00.650Z,78.90
2018-05-10T05:48:03.969Z,78.81
2018-05-10T05:51:08.106Z,78.58
2018-05-10T05:54:11.402Z,78.26
2018-05-10T05:57:14.721Z,78.39
2018-05-10T06:00:18.048Z,78.64
2018-05-10T06:03:21.353Z,78.58
2018-05-10T06:06:24.677Z,78.40
2018-05-10T06:09:28.749Z,78.61
2018-05-10T06:12:32.073Z,78.58
2018-05-10T06:15:35.454Z,78.13
2018-05-10T06:18:38.722Z,78.18
2018-05-10T06:21:42.053Z,78.14
2018-05-10T06:24:45.391Z,78.35
2018-05-10T06:27:48.712Z,78.21
2018-05-10T06:30:52.017Z,78.35
2018-05-10T06:33:55.375Z,77.72
2018-05-10T06:36:59.447Z,76.49
2018-05-10T06:40:02.785Z,76.30
2018-05-10T06:43:06.101Z,75.34
2018-05-10T06:46:09.434Z,74.00
2018-05-10T06:49:12.765Z,73.82
2018-05-10T06:52:16.833Z,73.53
2018-05-10T06:55:20.186Z,74.31
2018-05-10T06:58:23.493Z,73.09
2018-05-10T07:01:26.826Z,73.43
2018-05-10T07:04:30.150Z,72.52
2018-05-10T07:07:33.471Z,72.12
2018-05-10T07:10:36.777Z,71.49
2018-05-10T07:13:40.101Z,71.25
2018-05-10T07:16:43.422Z,70.66
2018-05-10T07:19:46.750Z,71.15
2018-05-10T07:22:50.075Z,70.28
2018-05-10T07:25:53.385Z,70.55
2018-05-10T07:28:56.705Z,69.99
2018-05-10T07:32:00.037Z,69.68
2018-05-10T07:35:04.108Z,71.49
2018-05-10T07:38:07.430Z,69.40
2018-05-10T07:41:10.751Z,69.00
2018-05-10T07:44:14.063Z,69.17
2018-05-10T07:47:17.435Z,68.36
2018-05-10T07:50:20.729Z,68.83
2018-05-10T07:53:24.817Z,68.83
2018-05-10T07:56:28.121Z,69.01
2018-05-10T07:59:31.442Z,69.16
2018-05-10T08:02:35.529Z,69.27
2018-05-10T08:05:38.829Z,69.27
2018-05-10T08:08:42.147Z,69.70
2018-05-10T08:11:45.494Z,69.09
2018-05-10T08:14:48.792Z,69.32
2018-05-10T08:17:52.106Z,68.85
2018-05-10T08:20:55.410Z,69.66
2018-05-10T08:23:58.732Z,70.10
2018-05-10T08:27:02.817Z,71.15
2018-05-10T08:30:06.129Z,70.22
2018-05-10T08:33:09.449Z,70.18
2018-05-10T08:36:12.769Z,70.26
2018-05-10T08:39:16.074Z,69.96
2018-05-10T08:42:19.397Z,69.83
2018-05-10T08:45:22.693Z,70.32
2018-05-10T08:48:26.015Z,69.67
2018-05-10T08:51:30.191Z,71.87
2018-05-10T08:54:33.437Z,73.45
2018-05-10T08:57:37.524Z,73.13
2018-05-10T09:00:40.845Z,72.31
2018-05-10T09:03:44.961Z,71.94
2018-05-10T09:06:49.033Z,70.89
2018-05-10T09:09:52.352Z,71.76
2018-05-10T09:12:55.675Z,72.77
2018-05-10T09:15:58.991Z,72.60
2018-05-10T09:19:02.309Z,73.25
2018-05-10T09:22:05.614Z,73.88
2018-05-10T09:25:08.929Z,73.01
2018-05-10T09:28:12.242Z,72.88
2018-05-10T09:31:16.329Z,71.75
2018-05-10T09:34:19.661Z,71.59
2018-05-10T09:37:23.729Z,70.92
2018-05-10T09:40:27.058Z,70.79
2018-05-10T09:43:30.365Z,70.52
2018-05-10T09:46:34.449Z,70.69
2018-05-10T09:49:37.769Z,70.86
2018-05-10T09:52:41.862Z,70.50
2018-05-10T09:55:45.173Z,69.64
2018-05-10T09:58:48.496Z,69.26
2018-05-10T10:01:51.801Z,68.43
2018-05-10T10:04:55.125Z,68.23
2018-05-10T10:07:58.461Z,68.18
2018-05-10T10:11:01.855Z,68.60
2018-05-10T10:14:05.101Z,67.96
2018-05-10T10:17:08.477Z,67.70
2018-05-10T10:20:11.734Z,68.24
2018-05-10T10:23:15.038Z,66.42
2018-05-10T10:26:18.358Z,66.77
2018-05-10T10:29:22.450Z,65.13
2018-05-10T10:32:25.867Z,64.72
2018-05-10T10:35:29.119Z,65.37
2018-05-10T10:38:32.438Z,64.81
2018-05-10T10:41:35.757Z,62.07
2018-05-10T10:44:39.845Z,61.16
2018-05-10T10:47:43.164Z,61.79
2018-05-10T10:50:47.365Z,60.91
2018-05-10T10:53:50.778Z,60.09
2018-05-10T10:56:54.009Z,59.33
2018-05-10T10:59:57.437Z,59.40
2018-05-10T11:03:00.648Z,58.92
2018-05-10T11:06:03.970Z,59.01
2018-05-10T11:09:08.164Z,59.23
2018-05-10T11:12:11.381Z,59.66
2018-05-10T11:15:15.477Z,57.64
2018-05-10T11:18:18.801Z,58.03
2018-05-10T11:21:22.122Z,58.86
2018-05-10T11:24:25.429Z,57.82
2018-05-10T11:27:28.750Z,56.35
2018-05-10T11:30:32.057Z,57.24
2018-05-10T11:33:35.378Z,56.42
2018-05-10T11:36:39.449Z,52.90
2018-05-10T11:39:42.769Z,53.02
2018-05-10T11:42:46.870Z,54.06
2018-05-10T11:45:50.178Z,55.18
2018-05-10T11:48:53.503Z,56.49
2018-05-10T11:51:56.823Z,56.80
2018-05-10T11:55:00.121Z,56.62
2018-05-10T11:58:03.445Z,57.34
2018-05-10T12:01:06.773Z,57.07
2018-05-10T12:04:10.838Z,56.93
2018-05-10T12:07:14.159Z,57.35
2018-05-10T12:10:17.461Z,58.19
2018-05-10T12:13:20.783Z,59.29
2018-05-10T12:16:24.873Z,59.52
2018-05-10T12:19:28.194Z,59.79
2018-05-10T12:22:32.302Z,60.45
2018-05-10T12:25:36.426Z,60.47
2018-05-10T12:28:39.697Z,61.11
2018-05-10T12:31:43.006Z,61.67
2018-05-10T12:34:47.097Z,63.07
2018-05-10T12:37:50.405Z,64.35
2018-05-10T12:40:53.732Z,65.89
2018-05-10T12:43:57.044Z,67.85
2018-05-10T12:47:00.369Z,65.99
2018-05-10T12:50:03.697Z,65.95
2018-05-10T12:53:07.005Z,66.97
2018-05-10T12:56:11.147Z,67.90
2018-05-10T12:59:14.425Z,69.21
2018-05-10T13:02:18.512Z,69.45
2018-05-10T13:05:21.817Z,70.05
2018-05-10T13:08:25.185Z,70.83
2018-05-10T13:11:28.469Z,71.63
2018-05-10T13:14:31.794Z,71.40
2018-05-10T13:17:35.096Z,71.22
2018-05-10T13:20:38.429Z,71.68
2018-05-10T13:23:41.757Z,71.80
2018-05-10T13:26:45.093Z,71.96
2018-05-10T13:29:48.397Z,69.93
2018-05-10T13:32:52.481Z,69.96
2018-05-10T13:35:55.802Z,69.31
2018-05-10T13:38:59.880Z,68.63
2018-05-10T13:42:03.205Z,68.06
2018-05-10T13:45:06.529Z,67.65
2018-05-10T13:48:10.602Z,68.67
2018-05-10T13:51:13.933Z,69.59
2018-05-10T13:54:18.008Z,69.31
2018-05-10T13:57:21.338Z,70.76
2018-05-10T14:00:25.410Z,70.89
2018-05-10T14:03:28.728Z,70.57
2018-05-10T14:06:32.035Z,70.87
2018-05-10T14:09:35.365Z,71.85
2018-05-10T14:12:38.703Z,71.25
2018-05-10T14:15:42.025Z,70.55
2018-05-10T14:18:45.351Z,69.58
2018-05-10T14:21:48.673Z,69.73
2018-05-10T14:24:51.993Z,69.56
2018-05-10T14:27:55.314Z,69.40
2018-05-10T14:30:58.641Z,69.91
2018-05-10T14:34:01.965Z,69.87
2018-05-10T14:37:05.321Z,70.45
2018-05-10T14:40:08.621Z,71.18
2018-05-10T14:43:11.941Z,71.10
2018-05-10T14:46:15.269Z,71.63
2018-05-10T14:49:18.600Z,70.97
2018-05-10T14:52:22.674Z,70.72
2018-05-10T14:55:25.993Z,70.61
2018-05-10T14:58:29.313Z,70.73
2018-05-10T15:01:33.405Z,71.13
2018-05-10T15:04:36.709Z,71.07
2018-05-10T15:07:40.029Z,71.54
2018-05-10T15:10:44.102Z,70.83
2018-05-10T15:13:47.425Z,70.78
2018-05-10T15:16:51.513Z,70.65
2018-05-10T15:19:54.834Z,71.64
2018-05-10T15:22:58.909Z,70.73
2018-05-10T15:26:02.241Z,70.59
2018-05-10T15:29:06.322Z,71.39
2018-05-10T15:32:09.657Z,71.25
2018-05-10T15:35:13.729Z,70.35
2018-05-10T15:38:17.098Z,70.47
2018-05-10T15:41:20.408Z,70.75
2018-05-10T15:44:23.729Z,71.51
2018-05-10T15:47:27.053Z,71.74
2018-05-10T15:50:30.381Z,72.48
2018-05-10T15:53:33.688Z,72.95
2018-05-10T15:56:37.009Z,72.91
2018-05-10T15:59:40.357Z,73.24
2018-05-10T16:02:44.430Z,73.28
2018-05-10T16:05:47.753Z,74.08
2018-05-10T16:08:51.760Z,74.50
2018-05-10T16:11:55.072Z,74.51
2018-05-10T16:14:59.161Z,74.70
2018-05-10T16:18:03.014Z,74.72
2018-05-10T16:21:06.333Z,73.28
2018-05-10T16:24:10.415Z,74.20
2018-05-10T16:27:14.514Z,74.01
2018-05-10T16:30:17.865Z,74.04
2018-05-10T16:33:21.177Z,74.34
2018-05-10T16:36:24.497Z,74.22
2018-05-10T16:39:27.895Z,73.38
2018-05-10T16:42:31.905Z,74.08
2018-05-10T16:45:35.213Z,73.29
2018-05-10T16:48:39.303Z,72.51
2018-05-10T16:51:42.634Z,71.44
2018-05-10T16:54:46.723Z,71.79
2018-05-10T16:57:50.030Z,71.75
2018-05-10T17:00:53.378Z,70.91
2018-05-10T17:03:56.694Z,70.09
2018-05-10T17:07:01.081Z,71.21
2018-05-10T17:10:04.649Z,70.24
2018-05-10T17:13:07.973Z,70.81
2018-05-10T17:16:11.314Z,71.49
2018-05-10T17:19:14.622Z,71.37
2018-05-10T17:22:17.950Z,71.84
2018-05-10T17:25:22.021Z,71.42
2018-05-10T17:28:26.041Z,71.67
2018-05-10T17:31:30.273Z,71.27
2018-05-10T17:34:33.616Z,71.38
2018-05-10T17:37:36.913Z,70.75
2018-05-10T17:40:40.237Z,71.31
2018-05-10T17:43:43.569Z,71.23
2018-05-10T17:46:46.897Z,72.04
2018-05-10T17:49:50.201Z,71.66
2018-05-10T17:52:53.516Z,71.87
2018-05-10T17:55:56.833Z,70.73
2018-05-10T17:59:00.154Z,71.19
2018-05-10T18:02:04.246Z,70.69
2018-05-10T18:05:07.547Z,70.04
2018-05-10T18:08:10.869Z,67.73
2018-05-10T18:11:14.189Z,69.10
2018-05-10T18:14:17.505Z,68.43
2018-05-10T18:17:20.829Z,68.12
2018-05-10T18:20:24.133Z,68.53
2018-05-10T18:23:27.512Z,68.47
2018-05-10T18:26:30.766Z,68.51
2018-05-10T18:29:34.090Z,68.39
2018-05-10T18:32:37.419Z,67.79
2018-05-10T18:35:40.746Z,68.37
2018-05-10T18:38:44.841Z,68.82
2018-05-10T18:41:48.157Z,69.09
2018-05-10T18:44:52.245Z,69.32
2018-05-10T18:47:55.554Z,69.25
2018-05-10T18:50:59.645Z,69.88
2018-05-10T18:54:02.961Z,70.24
2018-05-10T18:57:06.289Z,70.03
2018-05-10T19:00:09.597Z,70.55
2018-05-10T19:03:12.939Z,70.52
2018-05-10T19:06:16.254Z,71.07
2018-05-10T19:09:20.346Z,71.67
2018-05-10T19:12:23.653Z,71.68
2018-05-10T19:15:27.053Z,72.41
2018-05-10T19:18:30.322Z,72.63
2018-05-10T19:21:33.637Z,72.62
2018-05-10T19:24:36.971Z,72.45
2018-05-10T19:27:40.329Z,72.70
2018-05-10T19:30:43.653Z,73.40
2018-05-10T19:33:47.745Z,73.60
2018-05-10T19:36:51.152Z,73.95
2018-05-10T19:39:54.392Z,74.52
2018-05-10T19:42:57.718Z,74.77
2018-05-10T19:46:01.040Z,74.56
2018-05-10T19:49:04.365Z,74.80
2018-05-10T19:52:07.686Z,75.05
2018-05-10T19:55:10.991Z,74.85
2018-05-10T19:58:14.319Z,75.51
2018-05-10T20:01:17.627Z,75.55
2018-05-10T20:04:21.717Z,75.42
2018-05-10T20:07:25.045Z,75.60
2018-05-10T20:10:29.109Z,75.42
2018-05-10T20:13:32.429Z,75.52
2018-05-10T20:16:35.754Z,75.89
2018-05-10T20:19:39.825Z,76.16
2018-05-10T20:22:43.149Z,76.38
2018-05-10T20:25:46.469Z,77.08
2018-05-10T20:28:50.537Z,77.32
2018-05-10T20:31:53.858Z,77.66
2018-05-10T20:34:57.172Z,78.07
2018-05-10T20:38:01.265Z,78.09
2018-05-10T20:41:05.349Z,78.38
2018-05-10T20:44:08.689Z,78.73
2018-05-10T20:47:12.756Z,78.81
2018-05-10T20:50:16.073Z,79.09
2018-05-10T20:53:19.374Z,79.34
2018-05-10T20:56:22.693Z,79.51
2018-05-10T20:59:26.770Z,79.50
2018-05-10T21:02:30.081Z,79.62
2018-05-10T21:05:33.400Z,79.42
2018-05-10T21:08:37.499Z,79.50
2018-05-10T21:11:40.825Z,79.71
2018-05-10T21:14:44.889Z,79.76
2018-05-10T21:17:48.214Z,79.88
2018-05-10T21:20:51.518Z,79.98
2018-05-10T21:23:55.616Z,80.18
2018-05-10T21:26:58.918Z,80.39
2018-05-10T21:30:02.237Z,80.41
2018-05-10T21:33:06.317Z,80.65
2018-05-10T21:36:09.633Z,80.47
2018-05-10T21:39:12.951Z,80.72
2018-05-10T21:42:16.286Z,80.93
2018-05-10T21:45:19.590Z,80.80
2018-05-10T21:48:22.909Z,80.75
2018-05-10T21:51:26.238Z,80.25
2018-05-10T21:54:29.542Z,80.00
2018-05-10T21:57:32.865Z,80.03
2018-05-10T22:00:36.234Z,79.77
2018-05-10T22:03:39.561Z,79.65
2018-05-10T22:06:42.939Z,80.08
2018-05-10T22:09:46.197Z,80.11
2018-05-10T22:12:49.527Z,79.58
2018-05-10T22:15:52.852Z,79.42
2018-05-10T22:18:56.161Z,79.35
2018-05-10T22:21:59.477Z,79.17
2018-05-10T22:25:02.805Z,79.34
2018-05-10T22:28:06.138Z,79.23
2018-05-10T22:31:09.458Z,79.21
2018-05-10T22:34:12.761Z,78.91
2018-05-10T22:37:16.104Z,79.19
2018-05-10T22:40:19.408Z,79.19
2018-05-10T22:43:22.726Z,79.03
2018-05-10T22:46:26.047Z,79.36
2018-05-10T22:49:29.353Z,79.19
2018-05-10T22:52:32.677Z,79.27
2018-05-10T22:55:35.980Z,78.80
2018-05-10T22:58:39.301Z,78.75
2018-05-10T23:01:42.609Z,78.86
2018-05-10T23:04:45.938Z,79.25
2018-05-10T23:07:50.009Z,79.06
2018-05-10T23:10:53.333Z,79.56
2018-05-10T23:13:56.637Z,79.73
2018-05-10T23:16:59.963Z,79.81
2018-05-10T23:20:03.291Z,79.74
2018-05-10T23:23:06.593Z,80.01
2018-05-10T23:26:09.913Z,80.08
2018-05-10T23:29:13.246Z,80.30
2018-05-10T23:32:17.309Z,80.17
2018-05-10T23:35:20.633Z,79.40
2018-05-10T23:38:23.945Z,79.33
2018-05-10T23:41:28.057Z,79.59
2018-05-10T23:44:31.364Z,79.65
2018-05-10T23:47:35.452Z,79.88
2018-05-10T23:50:38.776Z,80.00
2018-05-10T23:53:42.077Z,80.17
2018-05-10T23:56:45.405Z,80.41
2018-05-10T23:59:48.733Z,80.70
